sensor_id;sensor_type;location;lat;lon;timestamp;temperature;humidity
51175;DHT22;37240;50.104;20.010;2022-11-20T00:01:49;0.70;97.90
51175;DHT22;37240;50.104;20.010;2022-11-20T00:06:49;0.70;98.10
51175;DHT22;37240;50.104;20.010;2022-11-20T00:11:50;0.60;98.20
51175;DHT22;37240;50.104;20.010;2022-11-20T00:16:50;0.60;97.80
51175;DHT22;37240;50.104;20.010;2022-11-20T00:21:51;0.60;97.30
51175;DHT22;37240;50.104;20.010;2022-11-20T00:26:51;0.50;97.10
51175;DHT22;37240;50.104;20.010;2022-11-20T00:31:52;0.40;97.40
51175;DHT22;37240;50.104;20.010;2022-11-20T00:36:52;0.40;97.10
51175;DHT22;37240;50.104;20.010;2022-11-20T00:41:53;0.40;97.50
51175;DHT22;37240;50.104;20.010;2022-11-20T00:46:53;0.40;97.50
51175;DHT22;37240;50.104;20.010;2022-11-20T00:51:54;0.30;97.50
51175;DHT22;37240;50.104;20.010;2022-11-20T00:56:54;0.30;97.90
51175;DHT22;37240;50.104;20.010;2022-11-20T01:01:55;0.30;97.30
51175;DHT22;37240;50.104;20.010;2022-11-20T01:06:55;0.30;97.50
51175;DHT22;37240;50.104;20.010;2022-11-20T01:11:56;0.30;97.50
51175;DHT22;37240;50.104;20.010;2022-11-20T01:16:56;0.20;97.20
51175;DHT22;37240;50.104;20.010;2022-11-20T01:21:57;0.30;97.60
51175;DHT22;37240;50.104;20.010;2022-11-20T01:26:57;0.20;97.30
51175;DHT22;37240;50.104;20.010;2022-11-20T01:31:58;0.20;97.10
51175;DHT22;37240;50.104;20.010;2022-11-20T01:36:58;0.10;97.30
51175;DHT22;37240;50.104;20.010;2022-11-20T01:41:59;0.10;97.40
51175;DHT22;37240;50.104;20.010;2022-11-20T01:47:01;0.10;97.20
51175;DHT22;37240;50.104;20.010;2022-11-20T01:57:13;-0.20;97.50
51175;DHT22;37240;50.104;20.010;2022-11-20T02:02:14;-0.40;98.00
51175;DHT22;37240;50.104;20.010;2022-11-20T02:07:15;-0.20;98.10
51175;DHT22;37240;50.104;20.010;2022-11-20T02:12:16;-0.10;97.60
51175;DHT22;37240;50.104;20.010;2022-11-20T02:17:17;0.00;97.50
51175;DHT22;37240;50.104;20.010;2022-11-20T02:22:28;-0.10;97.10
51175;DHT22;37240;50.104;20.010;2022-11-20T02:27:31;-0.20;97.00
51175;DHT22;37240;50.104;20.010;2022-11-20T02:32:34;-0.20;96.50
51175;DHT22;37240;50.104;20.010;2022-11-20T02:37:37;-0.40;96.70
51175;DHT22;37240;50.104;20.010;2022-11-20T02:42:39;-0.40;96.60
51175;DHT22;37240;50.104;20.010;2022-11-20T02:47:40;-0.50;96.90
51175;DHT22;37240;50.104;20.010;2022-11-20T02:52:40;-0.50;97.50
51175;DHT22;37240;50.104;20.010;2022-11-20T02:57:41;-0.40;97.70
51175;DHT22;37240;50.104;20.010;2022-11-20T03:02:41;-0.40;97.50
51175;DHT22;37240;50.104;20.010;2022-11-20T03:07:43;-0.40;96.80
51175;DHT22;37240;50.104;20.010;2022-11-20T03:12:44;-0.40;96.80
51175;DHT22;37240;50.104;20.010;2022-11-20T03:17:44;-0.40;96.40
51175;DHT22;37240;50.104;20.010;2022-11-20T03:22:45;-0.40;96.50
51175;DHT22;37240;50.104;20.010;2022-11-20T03:27:45;-0.50;96.90
51175;DHT22;37240;50.104;20.010;2022-11-20T03:32:46;-0.50;97.10
51175;DHT22;37240;50.104;20.010;2022-11-20T03:37:46;-0.50;97.20
51175;DHT22;37240;50.104;20.010;2022-11-20T03:42:47;-0.50;97.20
51175;DHT22;37240;50.104;20.010;2022-11-20T03:47:47;-0.50;97.40
51175;DHT22;37240;50.104;20.010;2022-11-20T03:52:48;-0.50;97.80
51175;DHT22;37240;50.104;20.010;2022-11-20T03:57:48;-0.50;97.80
51175;DHT22;37240;50.104;20.010;2022-11-20T04:02:49;-0.50;97.40
51175;DHT22;37240;50.104;20.010;2022-11-20T04:07:49;-0.60;97.80
51175;DHT22;37240;50.104;20.010;2022-11-20T04:12:50;-0.60;97.50
51175;DHT22;37240;50.104;20.010;2022-11-20T04:17:50;-0.50;97.60
51175;DHT22;37240;50.104;20.010;2022-11-20T04:22:53;-0.60;97.60
51175;DHT22;37240;50.104;20.010;2022-11-20T04:27:54;-0.70;97.50
51175;DHT22;37240;50.104;20.010;2022-11-20T04:32:55;-0.70;97.20
51175;DHT22;37240;50.104;20.010;2022-11-20T04:37:55;-0.70;97.10
51175;DHT22;37240;50.104;20.010;2022-11-20T04:42:56;-0.70;97.10
51175;DHT22;37240;50.104;20.010;2022-11-20T04:47:56;-0.70;97.20
51175;DHT22;37240;50.104;20.010;2022-11-20T04:52:57;-0.70;97.80
51175;DHT22;37240;50.104;20.010;2022-11-20T04:57:57;-0.70;97.90
51175;DHT22;37240;50.104;20.010;2022-11-20T05:02:58;-0.80;97.00
51175;DHT22;37240;50.104;20.010;2022-11-20T05:07:59;-0.70;97.70
51175;DHT22;37240;50.104;20.010;2022-11-20T05:12:59;-0.70;97.20
51175;DHT22;37240;50.104;20.010;2022-11-20T05:18:00;-0.80;97.10
51175;DHT22;37240;50.104;20.010;2022-11-20T05:23:00;-0.80;96.70
51175;DHT22;37240;50.104;20.010;2022-11-20T05:28:00;-0.90;96.80
51175;DHT22;37240;50.104;20.010;2022-11-20T05:33:01;-0.90;96.40
51175;DHT22;37240;50.104;20.010;2022-11-20T05:38:02;-1.00;96.40
51175;DHT22;37240;50.104;20.010;2022-11-20T05:43:02;-1.00;96.90
51175;DHT22;37240;50.104;20.010;2022-11-20T05:48:03;-1.00;97.80
51175;DHT22;37240;50.104;20.010;2022-11-20T05:53:03;-1.00;97.80
51175;DHT22;37240;50.104;20.010;2022-11-20T05:58:04;-1.00;97.20
51175;DHT22;37240;50.104;20.010;2022-11-20T06:03:04;-1.00;96.60
51175;DHT22;37240;50.104;20.010;2022-11-20T06:08:05;-1.10;96.80
51175;DHT22;37240;50.104;20.010;2022-11-20T06:13:05;-1.00;96.90
51175;DHT22;37240;50.104;20.010;2022-11-20T06:18:06;-1.00;97.10
51175;DHT22;37240;50.104;20.010;2022-11-20T06:23:06;-1.00;96.70
51175;DHT22;37240;50.104;20.010;2022-11-20T06:28:07;-1.00;96.60
51175;DHT22;37240;50.104;20.010;2022-11-20T06:33:08;-1.00;96.70
51175;DHT22;37240;50.104;20.010;2022-11-20T06:38:08;-1.00;97.30
51175;DHT22;37240;50.104;20.010;2022-11-20T06:43:11;-0.90;97.40
51175;DHT22;37240;50.104;20.010;2022-11-20T06:48:12;-0.90;97.10
51175;DHT22;37240;50.104;20.010;2022-11-20T06:53:12;-0.80;96.80
51175;DHT22;37240;50.104;20.010;2022-11-20T06:58:14;-0.70;96.70
51175;DHT22;37240;50.104;20.010;2022-11-20T07:03:15;-0.60;96.60
51175;DHT22;37240;50.104;20.010;2022-11-20T07:08:15;-0.40;96.50
51175;DHT22;37240;50.104;20.010;2022-11-20T07:13:16;-0.40;96.50
51175;DHT22;37240;50.104;20.010;2022-11-20T07:18:17;-0.40;96.40
51175;DHT22;37240;50.104;20.010;2022-11-20T07:23:17;-0.40;96.20
51175;DHT22;37240;50.104;20.010;2022-11-20T07:28:18;-0.30;96.60
51175;DHT22;37240;50.104;20.010;2022-11-20T07:33:18;-0.30;96.80
51175;DHT22;37240;50.104;20.010;2022-11-20T07:38:19;-0.20;97.10
51175;DHT22;37240;50.104;20.010;2022-11-20T07:43:20;-0.10;97.10
51175;DHT22;37240;50.104;20.010;2022-11-20T07:48:20;0.00;97.40
51175;DHT22;37240;50.104;20.010;2022-11-20T07:53:20;0.10;97.80
51175;DHT22;37240;50.104;20.010;2022-11-20T07:58:21;0.20;98.50
51175;DHT22;37240;50.104;20.010;2022-11-20T08:03:22;0.40;98.00
51175;DHT22;37240;50.104;20.010;2022-11-20T08:08:22;0.40;97.90
51175;DHT22;37240;50.104;20.010;2022-11-20T08:13:23;0.40;98.30
51175;DHT22;37240;50.104;20.010;2022-11-20T08:18:23;0.40;98.10
51175;DHT22;37240;50.104;20.010;2022-11-20T08:23:24;0.50;98.10
51175;DHT22;37240;50.104;20.010;2022-11-20T08:28:24;0.50;98.60
51175;DHT22;37240;50.104;20.010;2022-11-20T08:33:25;0.60;98.40
51175;DHT22;37240;50.104;20.010;2022-11-20T08:38:25;0.40;98.70
51175;DHT22;37240;50.104;20.010;2022-11-20T08:43:26;0.20;99.00
51175;DHT22;37240;50.104;20.010;2022-11-20T08:48:26;0.20;99.40
51175;DHT22;37240;50.104;20.010;2022-11-20T08:53:27;0.40;99.60
51175;DHT22;37240;50.104;20.010;2022-11-20T08:58:28;0.50;99.40
51175;DHT22;37240;50.104;20.010;2022-11-20T09:03:28;0.50;99.90
51175;DHT22;37240;50.104;20.010;2022-11-20T09:08:29;0.60;99.90
51175;DHT22;37240;50.104;20.010;2022-11-20T09:13:30;0.80;99.90
51175;DHT22;37240;50.104;20.010;2022-11-20T09:18:32;0.90;99.90
51175;DHT22;37240;50.104;20.010;2022-11-20T09:23:34;1.00;99.70
51175;DHT22;37240;50.104;20.010;2022-11-20T09:28:35;1.00;99.70
51175;DHT22;37240;50.104;20.010;2022-11-20T09:33:35;1.20;99.90
51175;DHT22;37240;50.104;20.010;2022-11-20T09:38:36;1.40;99.80
51175;DHT22;37240;50.104;20.010;2022-11-20T09:44:02;1.50;99.90
51175;DHT22;37240;50.104;20.010;2022-11-20T09:49:23;1.60;99.80
51175;DHT22;37240;50.104;20.010;2022-11-20T09:54:35;1.70;99.30
51175;DHT22;37240;50.104;20.010;2022-11-20T10:05:04;2.00;99.10
51175;DHT22;37240;50.104;20.010;2022-11-20T10:10:03;2.00;99.00
51175;DHT22;37240;50.104;20.010;2022-11-20T10:20:28;2.10;99.00
51175;DHT22;37240;50.104;20.010;2022-11-20T10:25:42;2.30;99.00
51175;DHT22;37240;50.104;20.010;2022-11-20T10:30:48;2.40;98.80
51175;DHT22;37240;50.104;20.010;2022-11-20T10:36:04;2.50;98.70
51175;DHT22;37240;50.104;20.010;2022-11-20T10:41:29;2.60;98.60
51175;DHT22;37240;50.104;20.010;2022-11-20T10:46:40;2.70;98.70
51175;DHT22;37240;50.104;20.010;2022-11-20T10:52:11;2.80;98.70
51175;DHT22;37240;50.104;20.010;2022-11-20T11:02:45;3.10;98.70
51175;DHT22;37240;50.104;20.010;2022-11-20T11:07:50;3.20;98.50
51175;DHT22;37240;50.104;20.010;2022-11-20T11:12:51;3.40;98.40
51175;DHT22;37240;50.104;20.010;2022-11-20T11:17:51;3.40;98.20
51175;DHT22;37240;50.104;20.010;2022-11-20T11:22:54;3.50;97.90
51175;DHT22;37240;50.104;20.010;2022-11-20T11:28:19;3.60;97.80
51175;DHT22;37240;50.104;20.010;2022-11-20T11:33:30;3.80;97.50
51175;DHT22;37240;50.104;20.010;2022-11-20T11:38:38;3.80;97.20
51175;DHT22;37240;50.104;20.010;2022-11-20T11:43:39;3.90;97.20
51175;DHT22;37240;50.104;20.010;2022-11-20T11:48:40;4.10;97.30
51175;DHT22;37240;50.104;20.010;2022-11-20T11:53:41;4.10;97.10
51175;DHT22;37240;50.104;20.010;2022-11-20T11:58:51;4.10;97.30
51175;DHT22;37240;50.104;20.010;2022-11-20T12:09:10;4.10;97.50
51175;DHT22;37240;50.104;20.010;2022-11-20T12:14:37;4.10;97.40
51175;DHT22;37240;50.104;20.010;2022-11-20T12:19:38;4.10;97.30
51175;DHT22;37240;50.104;20.010;2022-11-20T12:25:02;4.20;97.20
51175;DHT22;37240;50.104;20.010;2022-11-20T12:30:10;4.20;97.00
51175;DHT22;37240;50.104;20.010;2022-11-20T12:40:32;4.20;96.90
51175;DHT22;37240;50.104;20.010;2022-11-20T13:01:29;4.20;96.50
51175;DHT22;37240;50.104;20.010;2022-11-20T13:06:31;4.20;96.70
51175;DHT22;37240;50.104;20.010;2022-11-20T13:12:01;4.20;97.00
51175;DHT22;37240;50.104;20.010;2022-11-20T13:22:48;4.00;97.40
51175;DHT22;37240;50.104;20.010;2022-11-20T13:27:50;3.90;97.60
51175;DHT22;37240;50.104;20.010;2022-11-20T13:43:15;3.90;98.00
51175;DHT22;37240;50.104;20.010;2022-11-20T13:48:21;3.80;97.90
51175;DHT22;37240;50.104;20.010;2022-11-20T13:53:29;3.90;98.00
51175;DHT22;37240;50.104;20.010;2022-11-20T13:58:49;3.70;98.00
51175;DHT22;37240;50.104;20.010;2022-11-20T14:03:53;3.60;98.20
51175;DHT22;37240;50.104;20.010;2022-11-20T14:08:54;3.60;98.40
51175;DHT22;37240;50.104;20.010;2022-11-20T14:13:58;3.60;98.50
51175;DHT22;37240;50.104;20.010;2022-11-20T14:24:24;3.70;98.40
51175;DHT22;37240;50.104;20.010;2022-11-20T14:29:33;3.70;98.40
51175;DHT22;37240;50.104;20.010;2022-11-20T14:34:38;3.70;98.40
51175;DHT22;37240;50.104;20.010;2022-11-20T14:39:47;3.70;98.30
51175;DHT22;37240;50.104;20.010;2022-11-20T14:44:50;3.50;98.50
51175;DHT22;37240;50.104;20.010;2022-11-20T14:49:53;3.40;98.90
51175;DHT22;37240;50.104;20.010;2022-11-20T14:54:56;3.30;99.20
51175;DHT22;37240;50.104;20.010;2022-11-20T15:00:17;3.30;99.40
51175;DHT22;37240;50.104;20.010;2022-11-20T15:05:48;3.20;99.50
51175;DHT22;37240;50.104;20.010;2022-11-20T15:10:49;3.10;99.90
51175;DHT22;37240;50.104;20.010;2022-11-20T15:15:53;3.10;99.90
51175;DHT22;37240;50.104;20.010;2022-11-20T15:20:58;2.90;99.90
51175;DHT22;37240;50.104;20.010;2022-11-20T15:26:01;2.90;99.90
51175;DHT22;37240;50.104;20.010;2022-11-20T15:31:02;2.90;99.90
51175;DHT22;37240;50.104;20.010;2022-11-20T15:36:02;2.80;99.90
51175;DHT22;37240;50.104;20.010;2022-11-20T15:41:03;2.60;99.90
51175;DHT22;37240;50.104;20.010;2022-11-20T15:46:10;2.70;99.90
51175;DHT22;37240;50.104;20.010;2022-11-20T15:56:18;2.60;99.90
51175;DHT22;37240;50.104;20.010;2022-11-20T16:01:21;2.60;99.90
51175;DHT22;37240;50.104;20.010;2022-11-20T16:06:22;2.70;99.90
51175;DHT22;37240;50.104;20.010;2022-11-20T16:11:22;2.70;99.90
51175;DHT22;37240;50.104;20.010;2022-11-20T16:16:26;2.70;99.90
51175;DHT22;37240;50.104;20.010;2022-11-20T16:21:27;2.60;99.90
51175;DHT22;37240;50.104;20.010;2022-11-20T16:26:29;2.60;99.90
51175;DHT22;37240;50.104;20.010;2022-11-20T16:31:30;2.70;99.90
51175;DHT22;37240;50.104;20.010;2022-11-20T16:36:31;2.70;99.90
51175;DHT22;37240;50.104;20.010;2022-11-20T16:41:33;2.70;99.90
51175;DHT22;37240;50.104;20.010;2022-11-20T16:46:34;2.80;99.90
51175;DHT22;37240;50.104;20.010;2022-11-20T16:51:35;2.80;99.90
51175;DHT22;37240;50.104;20.010;2022-11-20T16:56:36;2.80;99.90
51175;DHT22;37240;50.104;20.010;2022-11-20T17:01:36;2.90;99.90
51175;DHT22;37240;50.104;20.010;2022-11-20T17:06:40;3.00;99.90
51175;DHT22;37240;50.104;20.010;2022-11-20T17:11:41;3.00;99.90
51175;DHT22;37240;50.104;20.010;2022-11-20T17:16:42;3.10;99.90
51175;DHT22;37240;50.104;20.010;2022-11-20T17:21:42;3.00;99.90
51175;DHT22;37240;50.104;20.010;2022-11-20T17:26:44;3.10;99.90
51175;DHT22;37240;50.104;20.010;2022-11-20T17:31:44;3.00;99.90
51175;DHT22;37240;50.104;20.010;2022-11-20T17:36:45;3.00;99.90
51175;DHT22;37240;50.104;20.010;2022-11-20T17:41:45;3.00;99.90
51175;DHT22;37240;50.104;20.010;2022-11-20T17:46:46;3.00;99.90
51175;DHT22;37240;50.104;20.010;2022-11-20T17:51:46;3.00;99.90
51175;DHT22;37240;50.104;20.010;2022-11-20T17:56:47;2.90;99.90
51175;DHT22;37240;50.104;20.010;2022-11-20T18:01:47;2.80;99.90
51175;DHT22;37240;50.104;20.010;2022-11-20T18:06:48;2.90;99.90
51175;DHT22;37240;50.104;20.010;2022-11-20T18:11:48;2.80;99.90
51175;DHT22;37240;50.104;20.010;2022-11-20T18:16:57;2.90;99.90
51175;DHT22;37240;50.104;20.010;2022-11-20T18:21:58;2.80;99.90
51175;DHT22;37240;50.104;20.010;2022-11-20T18:26:59;3.00;99.90
51175;DHT22;37240;50.104;20.010;2022-11-20T18:31:59;2.90;99.90
51175;DHT22;37240;50.104;20.010;2022-11-20T18:37:00;3.00;99.90
51175;DHT22;37240;50.104;20.010;2022-11-20T18:42:00;3.00;99.90
51175;DHT22;37240;50.104;20.010;2022-11-20T18:47:01;3.00;99.90
51175;DHT22;37240;50.104;20.010;2022-11-20T18:52:03;3.00;99.90
51175;DHT22;37240;50.104;20.010;2022-11-20T18:57:04;2.90;99.90
51175;DHT22;37240;50.104;20.010;2022-11-20T19:02:05;2.90;99.90
51175;DHT22;37240;50.104;20.010;2022-11-20T19:07:06;2.80;99.90
51175;DHT22;37240;50.104;20.010;2022-11-20T19:12:08;2.70;99.90
51175;DHT22;37240;50.104;20.010;2022-11-20T19:17:09;2.70;99.90
51175;DHT22;37240;50.104;20.010;2022-11-20T19:22:09;2.70;99.90
51175;DHT22;37240;50.104;20.010;2022-11-20T19:27:10;2.60;99.90
51175;DHT22;37240;50.104;20.010;2022-11-20T19:32:10;2.60;99.90
51175;DHT22;37240;50.104;20.010;2022-11-20T19:37:11;2.60;99.90
51175;DHT22;37240;50.104;20.010;2022-11-20T19:42:11;2.60;99.90
51175;DHT22;37240;50.104;20.010;2022-11-20T19:47:12;2.60;99.90
51175;DHT22;37240;50.104;20.010;2022-11-20T19:52:12;2.60;99.90
51175;DHT22;37240;50.104;20.010;2022-11-20T19:57:13;2.60;99.90
51175;DHT22;37240;50.104;20.010;2022-11-20T20:02:13;2.50;99.90
51175;DHT22;37240;50.104;20.010;2022-11-20T20:07:13;2.40;99.90
51175;DHT22;37240;50.104;20.010;2022-11-20T20:12:14;2.40;99.90
51175;DHT22;37240;50.104;20.010;2022-11-20T20:17:14;2.40;99.90
51175;DHT22;37240;50.104;20.010;2022-11-20T20:22:15;2.30;99.90
51175;DHT22;37240;50.104;20.010;2022-11-20T20:27:15;2.30;99.90
51175;DHT22;37240;50.104;20.010;2022-11-20T20:32:16;2.20;99.90
51175;DHT22;37240;50.104;20.010;2022-11-20T20:37:16;2.10;99.90
51175;DHT22;37240;50.104;20.010;2022-11-20T20:42:17;2.00;99.90
51175;DHT22;37240;50.104;20.010;2022-11-20T20:47:17;2.00;99.90
51175;DHT22;37240;50.104;20.010;2022-11-20T20:52:18;2.00;99.90
51175;DHT22;37240;50.104;20.010;2022-11-20T20:57:20;2.10;99.90
51175;DHT22;37240;50.104;20.010;2022-11-20T21:02:21;2.10;99.90
51175;DHT22;37240;50.104;20.010;2022-11-20T21:07:22;2.20;99.90
51175;DHT22;37240;50.104;20.010;2022-11-20T21:12:22;2.20;99.90
51175;DHT22;37240;50.104;20.010;2022-11-20T21:17:23;2.30;99.90
51175;DHT22;37240;50.104;20.010;2022-11-20T21:22:23;2.40;99.90
51175;DHT22;37240;50.104;20.010;2022-11-20T21:27:24;2.40;99.90
51175;DHT22;37240;50.104;20.010;2022-11-20T21:32:24;2.50;99.90
51175;DHT22;37240;50.104;20.010;2022-11-20T21:37:25;2.50;99.90
51175;DHT22;37240;50.104;20.010;2022-11-20T21:42:25;2.50;99.90
51175;DHT22;37240;50.104;20.010;2022-11-20T21:47:26;2.40;99.90
51175;DHT22;37240;50.104;20.010;2022-11-20T21:52:26;2.40;99.90
51175;DHT22;37240;50.104;20.010;2022-11-20T21:57:27;2.60;99.90
51175;DHT22;37240;50.104;20.010;2022-11-20T22:02:27;2.60;99.90
51175;DHT22;37240;50.104;20.010;2022-11-20T22:07:28;2.60;99.90
51175;DHT22;37240;50.104;20.010;2022-11-20T22:12:28;2.60;99.90
51175;DHT22;37240;50.104;20.010;2022-11-20T22:17:29;2.70;99.90
51175;DHT22;37240;50.104;20.010;2022-11-20T22:22:29;2.80;99.90
51175;DHT22;37240;50.104;20.010;2022-11-20T22:27:30;2.90;99.90
51175;DHT22;37240;50.104;20.010;2022-11-20T22:32:31;3.00;99.90
51175;DHT22;37240;50.104;20.010;2022-11-20T22:37:31;3.00;99.90
51175;DHT22;37240;50.104;20.010;2022-11-20T22:42:32;2.90;99.90
51175;DHT22;37240;50.104;20.010;2022-11-20T22:47:32;3.10;99.90
51175;DHT22;37240;50.104;20.010;2022-11-20T22:52:33;3.10;99.90
51175;DHT22;37240;50.104;20.010;2022-11-20T22:57:33;3.20;99.90
51175;DHT22;37240;50.104;20.010;2022-11-20T23:02:34;3.00;99.90
51175;DHT22;37240;50.104;20.010;2022-11-20T23:07:34;3.20;99.90
51175;DHT22;37240;50.104;20.010;2022-11-20T23:12:35;3.20;99.90
51175;DHT22;37240;50.104;20.010;2022-11-20T23:17:35;3.30;99.90
51175;DHT22;37240;50.104;20.010;2022-11-20T23:22:36;3.30;99.90
51175;DHT22;37240;50.104;20.010;2022-11-20T23:27:36;3.30;99.90
51175;DHT22;37240;50.104;20.010;2022-11-20T23:32:37;3.40;99.90
51175;DHT22;37240;50.104;20.010;2022-11-20T23:37:37;3.40;99.90
51175;DHT22;37240;50.104;20.010;2022-11-20T23:42:38;3.40;99.90
51175;DHT22;37240;50.104;20.010;2022-11-20T23:47:38;3.40;99.90
51175;DHT22;37240;50.104;20.010;2022-11-20T23:52:39;3.50;99.90
51175;DHT22;37240;50.104;20.010;2022-11-20T23:57:39;3.50;99.90
